Terminal Aerodrome Forecast
Issued by NWS

Home | Current Version | Previous Version | Text Only | Print | Product List | Glossary On
Versions: 1 2 3 4 5 6 7 8 9 10 11 12 13 14 15 16 17 18 19 20 21 22
000
FTUS41 KBGM 271139
TAFELM
TAF
KELM 271139Z 2712/2812 00000KT 4SM BR SCT008
      TEMPO 2712/2713 2SM BR VV003
     FM271300 27005KT P6SM FEW040
     FM280000 00000KT P6SM SKC=

USA.gov is the U.S. government's official web portal to all federal, state and local government web resources and services.